sensor_id;sensor_type;location;lat;lon;timestamp;temperature;humidity
46732;DHT22;32477;51.474;5.696;2022-07-26T00:02:23;17.50;99.90
46732;DHT22;32477;51.474;5.696;2022-07-26T00:04:49;17.40;99.90
46732;DHT22;32477;51.474;5.696;2022-07-26T00:07:15;17.40;99.90
46732;DHT22;32477;51.474;5.696;2022-07-26T00:09:41;17.30;99.90
46732;DHT22;32477;51.474;5.696;2022-07-26T00:12:08;17.20;99.90
46732;DHT22;32477;51.474;5.696;2022-07-26T00:14:37;17.20;99.90
46732;DHT22;32477;51.474;5.696;2022-07-26T00:17:06;17.10;99.90
46732;DHT22;32477;51.474;5.696;2022-07-26T00:19:41;17.20;99.90
46732;DHT22;32477;51.474;5.696;2022-07-26T00:22:10;17.10;99.90
46732;DHT22;32477;51.474;5.696;2022-07-26T00:24:55;17.20;99.90
46732;DHT22;32477;51.474;5.696;2022-07-26T00:27:21;17.20;99.90
46732;DHT22;32477;51.474;5.696;2022-07-26T00:29:47;17.30;99.90
46732;DHT22;32477;51.474;5.696;2022-07-26T00:32:12;17.30;99.90
46732;DHT22;32477;51.474;5.696;2022-07-26T00:34:38;17.40;99.90
46732;DHT22;32477;51.474;5.696;2022-07-26T00:37:07;17.50;99.90
46732;DHT22;32477;51.474;5.696;2022-07-26T00:39:36;17.50;99.90
46732;DHT22;32477;51.474;5.696;2022-07-26T00:42:05;17.50;99.90
46732;DHT22;32477;51.474;5.696;2022-07-26T00:44:38;17.50;99.90
46732;DHT22;32477;51.474;5.696;2022-07-26T00:47:10;17.50;99.90
46732;DHT22;32477;51.474;5.696;2022-07-26T00:49:36;17.50;99.90
46732;DHT22;32477;51.474;5.696;2022-07-26T00:52:04;17.50;99.90
46732;DHT22;32477;51.474;5.696;2022-07-26T00:54:31;17.50;99.90
46732;DHT22;32477;51.474;5.696;2022-07-26T00:56:57;17.50;99.90
46732;DHT22;32477;51.474;5.696;2022-07-26T00:59:24;17.60;99.90
46732;DHT22;32477;51.474;5.696;2022-07-26T01:01:50;17.60;99.90
46732;DHT22;32477;51.474;5.696;2022-07-26T01:04:16;17.60;99.90
46732;DHT22;32477;51.474;5.696;2022-07-26T01:06:45;17.60;99.90
46732;DHT22;32477;51.474;5.696;2022-07-26T01:09:13;17.60;99.90
46732;DHT22;32477;51.474;5.696;2022-07-26T01:11:39;17.60;99.90
46732;DHT22;32477;51.474;5.696;2022-07-26T01:14:08;17.60;99.90
46732;DHT22;32477;51.474;5.696;2022-07-26T01:16:34;17.60;99.90
46732;DHT22;32477;51.474;5.696;2022-07-26T01:18:59;17.60;99.90
46732;DHT22;32477;51.474;5.696;2022-07-26T01:21:30;17.60;99.90
46732;DHT22;32477;51.474;5.696;2022-07-26T01:23:57;17.60;99.90
46732;DHT22;32477;51.474;5.696;2022-07-26T01:26:23;17.60;99.90
46732;DHT22;32477;51.474;5.696;2022-07-26T01:28:49;17.60;99.90
46732;DHT22;32477;51.474;5.696;2022-07-26T01:31:16;17.60;99.90
46732;DHT22;32477;51.474;5.696;2022-07-26T01:33:42;17.60;99.90
46732;DHT22;32477;51.474;5.696;2022-07-26T01:36:08;17.70;99.90
46732;DHT22;32477;51.474;5.696;2022-07-26T01:38:38;17.70;99.90
46732;DHT22;32477;51.474;5.696;2022-07-26T01:41:09;17.70;99.90
46732;DHT22;32477;51.474;5.696;2022-07-26T01:43:38;17.70;99.90
46732;DHT22;32477;51.474;5.696;2022-07-26T01:46:06;17.70;99.90
46732;DHT22;32477;51.474;5.696;2022-07-26T01:48:33;17.70;99.90
46732;DHT22;32477;51.474;5.696;2022-07-26T01:50:59;17.70;99.90
46732;DHT22;32477;51.474;5.696;2022-07-26T01:53:25;17.70;99.90
46732;DHT22;32477;51.474;5.696;2022-07-26T01:55:52;17.80;99.90
46732;DHT22;32477;51.474;5.696;2022-07-26T01:58:20;17.70;99.90
46732;DHT22;32477;51.474;5.696;2022-07-26T02:00:47;17.70;99.90
46732;DHT22;32477;51.474;5.696;2022-07-26T02:03:13;17.80;99.90
46732;DHT22;32477;51.474;5.696;2022-07-26T02:05:39;17.80;99.90
46732;DHT22;32477;51.474;5.696;2022-07-26T02:08:05;17.80;99.90
46732;DHT22;32477;51.474;5.696;2022-07-26T02:10:31;17.80;99.90
46732;DHT22;32477;51.474;5.696;2022-07-26T02:13:17;17.80;99.90
46732;DHT22;32477;51.474;5.696;2022-07-26T02:15:43;17.80;99.90
46732;DHT22;32477;51.474;5.696;2022-07-26T02:18:10;17.80;99.90
46732;DHT22;32477;51.474;5.696;2022-07-26T02:20:36;17.70;99.90
46732;DHT22;32477;51.474;5.696;2022-07-26T02:23:03;17.60;99.90
46732;DHT22;32477;51.474;5.696;2022-07-26T02:25:29;17.50;99.90
46732;DHT22;32477;51.474;5.696;2022-07-26T02:27:55;17.50;99.90
46732;DHT22;32477;51.474;5.696;2022-07-26T02:30:21;17.50;99.90
46732;DHT22;32477;51.474;5.696;2022-07-26T02:32:47;17.50;99.90
46732;DHT22;32477;51.474;5.696;2022-07-26T02:35:17;17.50;99.90
46732;DHT22;32477;51.474;5.696;2022-07-26T02:37:43;17.50;99.90
46732;DHT22;32477;51.474;5.696;2022-07-26T02:40:10;17.60;99.90
46732;DHT22;32477;51.474;5.696;2022-07-26T02:42:35;17.50;99.90
46732;DHT22;32477;51.474;5.696;2022-07-26T02:45:01;17.60;99.90
46732;DHT22;32477;51.474;5.696;2022-07-26T02:47:28;17.60;99.90
46732;DHT22;32477;51.474;5.696;2022-07-26T02:49:54;17.60;99.90
46732;DHT22;32477;51.474;5.696;2022-07-26T02:52:22;17.70;99.90
46732;DHT22;32477;51.474;5.696;2022-07-26T02:54:48;17.70;99.90
46732;DHT22;32477;51.474;5.696;2022-07-26T02:57:14;17.70;99.90
46732;DHT22;32477;51.474;5.696;2022-07-26T02:59:40;17.70;99.90
46732;DHT22;32477;51.474;5.696;2022-07-26T03:02:06;17.70;99.90
46732;DHT22;32477;51.474;5.696;2022-07-26T03:04:37;17.70;99.90
46732;DHT22;32477;51.474;5.696;2022-07-26T03:07:06;17.70;99.90
46732;DHT22;32477;51.474;5.696;2022-07-26T03:09:32;17.70;99.90
46732;DHT22;32477;51.474;5.696;2022-07-26T03:11:58;17.70;99.90
46732;DHT22;32477;51.474;5.696;2022-07-26T03:14:26;17.60;99.90
46732;DHT22;32477;51.474;5.696;2022-07-26T03:16:52;17.60;99.90
46732;DHT22;32477;51.474;5.696;2022-07-26T03:19:21;17.50;99.90
46732;DHT22;32477;51.474;5.696;2022-07-26T03:21:47;17.50;99.90
46732;DHT22;32477;51.474;5.696;2022-07-26T03:24:13;17.50;99.90
46732;DHT22;32477;51.474;5.696;2022-07-26T03:26:39;17.50;99.90
46732;DHT22;32477;51.474;5.696;2022-07-26T03:29:05;17.60;99.90
46732;DHT22;32477;51.474;5.696;2022-07-26T03:31:37;17.60;99.90
46732;DHT22;32477;51.474;5.696;2022-07-26T03:34:03;17.60;99.90
46732;DHT22;32477;51.474;5.696;2022-07-26T03:36:38;17.60;99.90
46732;DHT22;32477;51.474;5.696;2022-07-26T03:39:05;17.50;99.90
46732;DHT22;32477;51.474;5.696;2022-07-26T03:41:31;17.50;99.90
46732;DHT22;32477;51.474;5.696;2022-07-26T03:43:57;17.50;99.90
46732;DHT22;32477;51.474;5.696;2022-07-26T03:46:23;17.50;99.90
46732;DHT22;32477;51.474;5.696;2022-07-26T03:48:49;17.50;99.90
46732;DHT22;32477;51.474;5.696;2022-07-26T03:51:14;17.50;99.90
46732;DHT22;32477;51.474;5.696;2022-07-26T03:53:40;17.50;99.90
46732;DHT22;32477;51.474;5.696;2022-07-26T03:56:06;17.60;99.90
46732;DHT22;32477;51.474;5.696;2022-07-26T03:58:51;17.50;99.90
46732;DHT22;32477;51.474;5.696;2022-07-26T04:01:17;17.50;99.90
46732;DHT22;32477;51.474;5.696;2022-07-26T04:03:45;17.60;99.90
46732;DHT22;32477;51.474;5.696;2022-07-26T04:06:12;17.60;99.90
46732;DHT22;32477;51.474;5.696;2022-07-26T04:08:39;17.60;99.90
46732;DHT22;32477;51.474;5.696;2022-07-26T04:11:05;17.60;99.90
46732;DHT22;32477;51.474;5.696;2022-07-26T04:13:32;17.60;99.90
46732;DHT22;32477;51.474;5.696;2022-07-26T04:16:01;17.70;99.90
46732;DHT22;32477;51.474;5.696;2022-07-26T04:18:27;17.60;99.90
46732;DHT22;32477;51.474;5.696;2022-07-26T04:20:53;17.70;99.90
46732;DHT22;32477;51.474;5.696;2022-07-26T04:23:19;17.70;99.90
46732;DHT22;32477;51.474;5.696;2022-07-26T04:25:45;17.70;99.90
46732;DHT22;32477;51.474;5.696;2022-07-26T04:28:11;17.70;99.90
46732;DHT22;32477;51.474;5.696;2022-07-26T04:30:38;17.70;99.90
46732;DHT22;32477;51.474;5.696;2022-07-26T04:33:05;17.70;99.90
46732;DHT22;32477;51.474;5.696;2022-07-26T04:35:31;17.70;99.90
46732;DHT22;32477;51.474;5.696;2022-07-26T04:37:57;17.70;99.90
46732;DHT22;32477;51.474;5.696;2022-07-26T04:40:23;17.80;99.90
46732;DHT22;32477;51.474;5.696;2022-07-26T04:42:50;17.80;99.90
46732;DHT22;32477;51.474;5.696;2022-07-26T04:45:32;17.90;99.90
46732;DHT22;32477;51.474;5.696;2022-07-26T04:47:57;17.90;99.90
46732;DHT22;32477;51.474;5.696;2022-07-26T04:50:23;18.00;99.90
46732;DHT22;32477;51.474;5.696;2022-07-26T04:52:51;18.00;99.90
46732;DHT22;32477;51.474;5.696;2022-07-26T04:55:17;18.10;99.90
46732;DHT22;32477;51.474;5.696;2022-07-26T04:57:46;18.10;99.90
46732;DHT22;32477;51.474;5.696;2022-07-26T05:00:20;18.10;99.90
46732;DHT22;32477;51.474;5.696;2022-07-26T05:02:48;18.10;99.90
46732;DHT22;32477;51.474;5.696;2022-07-26T05:05:25;18.20;99.90
46732;DHT22;32477;51.474;5.696;2022-07-26T05:07:55;18.20;99.90
46732;DHT22;32477;51.474;5.696;2022-07-26T05:10:33;18.30;99.90
46732;DHT22;32477;51.474;5.696;2022-07-26T05:13:03;18.40;99.90
46732;DHT22;32477;51.474;5.696;2022-07-26T05:15:38;18.40;99.90
46732;DHT22;32477;51.474;5.696;2022-07-26T05:21:33;18.50;99.90
46732;DHT22;32477;51.474;5.696;2022-07-26T05:24:01;18.60;99.90
46732;DHT22;32477;51.474;5.696;2022-07-26T05:26:35;18.60;99.90
46732;DHT22;32477;51.474;5.696;2022-07-26T05:32:23;18.70;99.90
46732;DHT22;32477;51.474;5.696;2022-07-26T05:35:13;18.60;99.90
46732;DHT22;32477;51.474;5.696;2022-07-26T05:40:34;18.50;99.90
46732;DHT22;32477;51.474;5.696;2022-07-26T05:43:03;18.60;99.90
46732;DHT22;32477;51.474;5.696;2022-07-26T05:46:31;18.80;99.90
46732;DHT22;32477;51.474;5.696;2022-07-26T05:48:58;19.30;99.90
46732;DHT22;32477;51.474;5.696;2022-07-26T05:51:25;19.50;99.90
46732;DHT22;32477;51.474;5.696;2022-07-26T05:53:56;19.80;99.90
46732;DHT22;32477;51.474;5.696;2022-07-26T05:56:22;20.20;99.90
46732;DHT22;32477;51.474;5.696;2022-07-26T05:58:48;20.70;99.90
46732;DHT22;32477;51.474;5.696;2022-07-26T06:01:14;21.10;99.90
46732;DHT22;32477;51.474;5.696;2022-07-26T06:03:40;21.30;99.90
46732;DHT22;32477;51.474;5.696;2022-07-26T06:06:07;21.10;99.90
46732;DHT22;32477;51.474;5.696;2022-07-26T06:08:35;21.10;99.90
46732;DHT22;32477;51.474;5.696;2022-07-26T06:11:00;21.60;99.90
46732;DHT22;32477;51.474;5.696;2022-07-26T06:13:26;22.00;99.90
46732;DHT22;32477;51.474;5.696;2022-07-26T06:15:54;21.80;99.90
46732;DHT22;32477;51.474;5.696;2022-07-26T06:18:21;21.50;99.90
46732;DHT22;32477;51.474;5.696;2022-07-26T06:20:47;21.60;99.90
46732;DHT22;32477;51.474;5.696;2022-07-26T06:23:13;21.60;99.90
46732;DHT22;32477;51.474;5.696;2022-07-26T06:25:40;21.40;99.90
46732;DHT22;32477;51.474;5.696;2022-07-26T06:28:08;21.10;99.90
46732;DHT22;32477;51.474;5.696;2022-07-26T06:30:36;21.10;99.90
46732;DHT22;32477;51.474;5.696;2022-07-26T06:33:29;21.10;99.90
46732;DHT22;32477;51.474;5.696;2022-07-26T06:39:41;22.60;99.90
46732;DHT22;32477;51.474;5.696;2022-07-26T06:42:16;22.80;99.90
46732;DHT22;32477;51.474;5.696;2022-07-26T06:44:55;23.30;99.90
46732;DHT22;32477;51.474;5.696;2022-07-26T06:47:27;23.70;99.90
46732;DHT22;32477;51.474;5.696;2022-07-26T06:50:04;23.90;99.90
46732;DHT22;32477;51.474;5.696;2022-07-26T06:52:42;24.40;99.90
46732;DHT22;32477;51.474;5.696;2022-07-26T06:55:14;24.30;99.90
46732;DHT22;32477;51.474;5.696;2022-07-26T06:57:40;24.30;99.90
46732;DHT22;32477;51.474;5.696;2022-07-26T07:08:20;24.90;98.70
46732;DHT22;32477;51.474;5.696;2022-07-26T07:14:40;24.80;98.50
46732;DHT22;32477;51.474;5.696;2022-07-26T07:17:36;24.80;98.60
46732;DHT22;32477;51.474;5.696;2022-07-26T07:20:27;25.20;98.20
46732;DHT22;32477;51.474;5.696;2022-07-26T07:22:57;25.50;97.20
46732;DHT22;32477;51.474;5.696;2022-07-26T07:28:29;25.60;96.80
46732;DHT22;32477;51.474;5.696;2022-07-26T07:30:58;25.60;95.90
46732;DHT22;32477;51.474;5.696;2022-07-26T07:33:24;25.10;96.80
46732;DHT22;32477;51.474;5.696;2022-07-26T07:36:14;25.30;95.80
46732;DHT22;32477;51.474;5.696;2022-07-26T07:38:40;24.80;96.20
46732;DHT22;32477;51.474;5.696;2022-07-26T07:41:06;24.60;96.70
46732;DHT22;32477;51.474;5.696;2022-07-26T07:43:32;25.20;96.40
46732;DHT22;32477;51.474;5.696;2022-07-26T07:45:58;25.20;95.60
46732;DHT22;32477;51.474;5.696;2022-07-26T07:48:24;24.60;96.60
46732;DHT22;32477;51.474;5.696;2022-07-26T07:50:50;24.60;96.50
46732;DHT22;32477;51.474;5.696;2022-07-26T07:53:16;24.90;96.00
46732;DHT22;32477;51.474;5.696;2022-07-26T07:55:42;25.50;96.10
46732;DHT22;32477;51.474;5.696;2022-07-26T07:58:07;26.20;94.60
46732;DHT22;32477;51.474;5.696;2022-07-26T08:00:34;26.30;94.20
46732;DHT22;32477;51.474;5.696;2022-07-26T08:03:00;26.90;93.40
46732;DHT22;32477;51.474;5.696;2022-07-26T08:05:30;27.00;93.10
46732;DHT22;32477;51.474;5.696;2022-07-26T08:08:02;27.60;92.10
46732;DHT22;32477;51.474;5.696;2022-07-26T08:10:32;27.40;91.90
46732;DHT22;32477;51.474;5.696;2022-07-26T08:12:58;28.10;92.00
46732;DHT22;32477;51.474;5.696;2022-07-26T08:15:24;28.20;90.70
46732;DHT22;32477;51.474;5.696;2022-07-26T08:17:57;27.10;91.60
46732;DHT22;32477;51.474;5.696;2022-07-26T08:20:23;25.80;93.00
46732;DHT22;32477;51.474;5.696;2022-07-26T08:22:54;24.80;94.70
46732;DHT22;32477;51.474;5.696;2022-07-26T08:25:20;24.10;95.90
46732;DHT22;32477;51.474;5.696;2022-07-26T08:27:46;23.70;96.60
46732;DHT22;32477;51.474;5.696;2022-07-26T08:30:13;23.90;96.60
46732;DHT22;32477;51.474;5.696;2022-07-26T08:32:39;24.80;95.50
46732;DHT22;32477;51.474;5.696;2022-07-26T08:35:05;26.00;94.00
46732;DHT22;32477;51.474;5.696;2022-07-26T08:37:34;26.30;93.40
46732;DHT22;32477;51.474;5.696;2022-07-26T08:40:00;26.40;93.30
46732;DHT22;32477;51.474;5.696;2022-07-26T08:42:54;26.50;93.00
46732;DHT22;32477;51.474;5.696;2022-07-26T08:45:36;25.40;93.50
46732;DHT22;32477;51.474;5.696;2022-07-26T08:48:05;24.40;95.20
46732;DHT22;32477;51.474;5.696;2022-07-26T08:50:31;24.00;96.80
46732;DHT22;32477;51.474;5.696;2022-07-26T08:53:02;23.80;99.00
46732;DHT22;32477;51.474;5.696;2022-07-26T08:55:40;22.90;99.90
46732;DHT22;32477;51.474;5.696;2022-07-26T08:58:06;22.30;99.90
46732;DHT22;32477;51.474;5.696;2022-07-26T09:00:35;22.10;99.90
46732;DHT22;32477;51.474;5.696;2022-07-26T09:03:04;21.50;99.90
46732;DHT22;32477;51.474;5.696;2022-07-26T09:05:32;21.10;99.90
46732;DHT22;32477;51.474;5.696;2022-07-26T09:08:00;21.10;99.90
46732;DHT22;32477;51.474;5.696;2022-07-26T09:10:27;21.10;99.90
46732;DHT22;32477;51.474;5.696;2022-07-26T09:12:58;21.20;99.90
46732;DHT22;32477;51.474;5.696;2022-07-26T09:15:30;21.20;99.90
46732;DHT22;32477;51.474;5.696;2022-07-26T09:18:06;21.20;99.90
46732;DHT22;32477;51.474;5.696;2022-07-26T09:20:34;21.20;99.90
46732;DHT22;32477;51.474;5.696;2022-07-26T09:23:07;21.20;99.90
46732;DHT22;32477;51.474;5.696;2022-07-26T09:25:41;21.40;99.90
46732;DHT22;32477;51.474;5.696;2022-07-26T09:28:28;21.70;99.90
46732;DHT22;32477;51.474;5.696;2022-07-26T09:31:00;22.30;99.90
46732;DHT22;32477;51.474;5.696;2022-07-26T09:33:46;23.50;99.90
46732;DHT22;32477;51.474;5.696;2022-07-26T09:36:12;24.00;99.90
46732;DHT22;32477;51.474;5.696;2022-07-26T09:38:44;25.70;99.90
46732;DHT22;32477;51.474;5.696;2022-07-26T09:41:31;26.50;97.60
46732;DHT22;32477;51.474;5.696;2022-07-26T09:44:01;25.90;97.70
46732;DHT22;32477;51.474;5.696;2022-07-26T09:46:28;25.50;98.00
46732;DHT22;32477;51.474;5.696;2022-07-26T09:48:55;25.60;98.00
46732;DHT22;32477;51.474;5.696;2022-07-26T09:51:49;25.50;98.00
46732;DHT22;32477;51.474;5.696;2022-07-26T09:54:29;27.70;95.50
46732;DHT22;32477;51.474;5.696;2022-07-26T09:56:57;28.60;93.10
46732;DHT22;32477;51.474;5.696;2022-07-26T09:59:24;27.80;92.90
46732;DHT22;32477;51.474;5.696;2022-07-26T10:01:52;27.00;93.50
46732;DHT22;32477;51.474;5.696;2022-07-26T10:04:19;26.60;94.40
46732;DHT22;32477;51.474;5.696;2022-07-26T10:06:46;25.80;95.10
46732;DHT22;32477;51.474;5.696;2022-07-26T10:09:14;25.00;96.20
46732;DHT22;32477;51.474;5.696;2022-07-26T10:11:44;24.30;97.20
46732;DHT22;32477;51.474;5.696;2022-07-26T10:16:58;23.80;97.90
46732;DHT22;32477;51.474;5.696;2022-07-26T10:19:40;23.80;98.40
46732;DHT22;32477;51.474;5.696;2022-07-26T10:27:56;25.50;95.80
46732;DHT22;32477;51.474;5.696;2022-07-26T10:30:27;25.40;95.10
46732;DHT22;32477;51.474;5.696;2022-07-26T10:32:56;25.20;96.10
46732;DHT22;32477;51.474;5.696;2022-07-26T10:35:39;25.60;96.00
46732;DHT22;32477;51.474;5.696;2022-07-26T10:38:08;25.80;95.40
46732;DHT22;32477;51.474;5.696;2022-07-26T10:41:05;25.40;95.60
46732;DHT22;32477;51.474;5.696;2022-07-26T10:43:32;24.80;96.40
46732;DHT22;32477;51.474;5.696;2022-07-26T10:48:59;23.90;98.80
46732;DHT22;32477;51.474;5.696;2022-07-26T10:51:34;23.80;98.80
46732;DHT22;32477;51.474;5.696;2022-07-26T10:54:05;23.40;99.40
46732;DHT22;32477;51.474;5.696;2022-07-26T10:56:34;23.30;99.40
46732;DHT22;32477;51.474;5.696;2022-07-26T10:59:03;23.50;99.00
46732;DHT22;32477;51.474;5.696;2022-07-26T11:01:34;23.70;98.80
46732;DHT22;32477;51.474;5.696;2022-07-26T11:04:00;24.00;97.90
46732;DHT22;32477;51.474;5.696;2022-07-26T11:06:28;24.20;97.60
46732;DHT22;32477;51.474;5.696;2022-07-26T11:08:58;24.40;97.70
46732;DHT22;32477;51.474;5.696;2022-07-26T11:11:33;24.40;97.10
46732;DHT22;32477;51.474;5.696;2022-07-26T11:14:10;24.50;96.80
46732;DHT22;32477;51.474;5.696;2022-07-26T11:16:47;24.30;96.70
46732;DHT22;32477;51.474;5.696;2022-07-26T11:19:22;23.90;97.20
46732;DHT22;32477;51.474;5.696;2022-07-26T11:21:58;23.80;97.60
46732;DHT22;32477;51.474;5.696;2022-07-26T11:24:27;23.60;97.50
46732;DHT22;32477;51.474;5.696;2022-07-26T11:26:54;23.60;97.40
46732;DHT22;32477;51.474;5.696;2022-07-26T11:29:31;23.70;97.80
46732;DHT22;32477;51.474;5.696;2022-07-26T11:32:00;23.80;97.70
46732;DHT22;32477;51.474;5.696;2022-07-26T11:34:29;24.00;97.20
46732;DHT22;32477;51.474;5.696;2022-07-26T11:36:57;23.90;96.80
46732;DHT22;32477;51.474;5.696;2022-07-26T11:39:27;24.10;97.00
46732;DHT22;32477;51.474;5.696;2022-07-26T11:42:07;24.40;96.00
46732;DHT22;32477;51.474;5.696;2022-07-26T11:44:34;24.40;95.90
46732;DHT22;32477;51.474;5.696;2022-07-26T11:49:37;24.30;95.30
46732;DHT22;32477;51.474;5.696;2022-07-26T11:52:03;24.00;95.50
46732;DHT22;32477;51.474;5.696;2022-07-26T11:54:41;24.30;95.60
46732;DHT22;32477;51.474;5.696;2022-07-26T11:57:07;24.00;95.60
46732;DHT22;32477;51.474;5.696;2022-07-26T11:59:38;24.00;96.40
46732;DHT22;32477;51.474;5.696;2022-07-26T12:02:07;22.90;99.20
46732;DHT22;32477;51.474;5.696;2022-07-26T12:04:36;21.90;99.90
46732;DHT22;32477;51.474;5.696;2022-07-26T12:08:14;21.80;99.90
46732;DHT22;32477;51.474;5.696;2022-07-26T12:10:15;21.70;99.90
46732;DHT22;32477;51.474;5.696;2022-07-26T12:12:41;21.50;99.90
46732;DHT22;32477;51.474;5.696;2022-07-26T12:15:07;21.40;99.90
46732;DHT22;32477;51.474;5.696;2022-07-26T12:17:33;21.00;99.90
46732;DHT22;32477;51.474;5.696;2022-07-26T12:20:16;21.20;99.90
46732;DHT22;32477;51.474;5.696;2022-07-26T12:22:56;21.20;99.90
46732;DHT22;32477;51.474;5.696;2022-07-26T12:25:28;21.60;99.90
46732;DHT22;32477;51.474;5.696;2022-07-26T12:27:54;21.30;99.90
46732;DHT22;32477;51.474;5.696;2022-07-26T12:30:22;20.90;99.90
46732;DHT22;32477;51.474;5.696;2022-07-26T12:32:49;20.80;99.90
46732;DHT22;32477;51.474;5.696;2022-07-26T12:35:30;20.70;99.90
46732;DHT22;32477;51.474;5.696;2022-07-26T12:37:58;20.60;99.90
46732;DHT22;32477;51.474;5.696;2022-07-26T12:40:26;20.90;99.90
46732;DHT22;32477;51.474;5.696;2022-07-26T12:42:56;21.00;99.90
46732;DHT22;32477;51.474;5.696;2022-07-26T12:45:30;21.20;99.90
46732;DHT22;32477;51.474;5.696;2022-07-26T12:47:57;21.30;99.90
46732;DHT22;32477;51.474;5.696;2022-07-26T12:50:25;21.20;99.90
46732;DHT22;32477;51.474;5.696;2022-07-26T12:52:58;21.00;99.90
46732;DHT22;32477;51.474;5.696;2022-07-26T12:55:24;21.00;99.90
46732;DHT22;32477;51.474;5.696;2022-07-26T12:57:50;21.30;99.90
46732;DHT22;32477;51.474;5.696;2022-07-26T13:00:17;21.30;99.90
46732;DHT22;32477;51.474;5.696;2022-07-26T13:02:43;21.00;99.90
46732;DHT22;32477;51.474;5.696;2022-07-26T13:05:10;21.10;99.90
46732;DHT22;32477;51.474;5.696;2022-07-26T13:07:37;21.00;99.90
46732;DHT22;32477;51.474;5.696;2022-07-26T13:10:05;20.80;99.90
46732;DHT22;32477;51.474;5.696;2022-07-26T13:12:31;20.80;99.90
46732;DHT22;32477;51.474;5.696;2022-07-26T13:14:59;20.80;99.90
46732;DHT22;32477;51.474;5.696;2022-07-26T13:17:25;20.90;99.90
46732;DHT22;32477;51.474;5.696;2022-07-26T13:19:52;21.50;99.90
46732;DHT22;32477;51.474;5.696;2022-07-26T13:22:23;21.70;99.90
46732;DHT22;32477;51.474;5.696;2022-07-26T13:24:49;21.70;99.90
46732;DHT22;32477;51.474;5.696;2022-07-26T13:27:18;21.70;99.90
46732;DHT22;32477;51.474;5.696;2022-07-26T13:29:44;21.40;99.90
46732;DHT22;32477;51.474;5.696;2022-07-26T13:32:10;21.30;99.90
46732;DHT22;32477;51.474;5.696;2022-07-26T13:34:36;21.10;99.90
46732;DHT22;32477;51.474;5.696;2022-07-26T13:37:06;20.80;99.90
46732;DHT22;32477;51.474;5.696;2022-07-26T13:39:37;20.80;99.90
46732;DHT22;32477;51.474;5.696;2022-07-26T13:42:06;21.10;99.90
46732;DHT22;32477;51.474;5.696;2022-07-26T13:44:32;21.20;99.90
46732;DHT22;32477;51.474;5.696;2022-07-26T13:47:03;21.30;99.90
46732;DHT22;32477;51.474;5.696;2022-07-26T13:49:31;21.30;99.90
46732;DHT22;32477;51.474;5.696;2022-07-26T13:51:57;21.40;99.90
46732;DHT22;32477;51.474;5.696;2022-07-26T13:54:31;21.40;99.90
46732;DHT22;32477;51.474;5.696;2022-07-26T13:57:03;21.30;99.90
46732;DHT22;32477;51.474;5.696;2022-07-26T13:59:29;21.20;99.90
46732;DHT22;32477;51.474;5.696;2022-07-26T14:01:55;21.20;99.90
46732;DHT22;32477;51.474;5.696;2022-07-26T14:04:22;21.10;99.90
46732;DHT22;32477;51.474;5.696;2022-07-26T14:06:49;20.90;99.90
46732;DHT22;32477;51.474;5.696;2022-07-26T14:09:17;20.50;99.90
46732;DHT22;32477;51.474;5.696;2022-07-26T14:11:44;20.30;99.90
46732;DHT22;32477;51.474;5.696;2022-07-26T14:14:12;20.30;99.90
46732;DHT22;32477;51.474;5.696;2022-07-26T14:16:38;19.90;99.90
46732;DHT22;32477;51.474;5.696;2022-07-26T14:19:10;19.70;99.90
46732;DHT22;32477;51.474;5.696;2022-07-26T14:21:39;19.50;99.90
46732;DHT22;32477;51.474;5.696;2022-07-26T14:24:08;19.30;99.90
46732;DHT22;32477;51.474;5.696;2022-07-26T14:26:40;19.30;99.90
46732;DHT22;32477;51.474;5.696;2022-07-26T14:29:06;19.20;99.90
46732;DHT22;32477;51.474;5.696;2022-07-26T14:31:47;19.20;99.90
46732;DHT22;32477;51.474;5.696;2022-07-26T14:34:14;19.30;99.90
46732;DHT22;32477;51.474;5.696;2022-07-26T14:36:47;19.30;99.90
46732;DHT22;32477;51.474;5.696;2022-07-26T14:39:29;19.40;99.90
46732;DHT22;32477;51.474;5.696;2022-07-26T14:42:24;19.50;99.90
46732;DHT22;32477;51.474;5.696;2022-07-26T14:44:51;19.60;99.90
46732;DHT22;32477;51.474;5.696;2022-07-26T14:47:17;19.60;99.90
46732;DHT22;32477;51.474;5.696;2022-07-26T14:49:43;19.60;99.90
46732;DHT22;32477;51.474;5.696;2022-07-26T14:52:09;19.80;99.90
46732;DHT22;32477;51.474;5.696;2022-07-26T14:54:35;20.00;99.90
46732;DHT22;32477;51.474;5.696;2022-07-26T14:57:08;20.20;99.90
46732;DHT22;32477;51.474;5.696;2022-07-26T14:59:34;20.20;99.90
46732;DHT22;32477;51.474;5.696;2022-07-26T15:02:02;20.20;99.90
46732;DHT22;32477;51.474;5.696;2022-07-26T15:04:28;20.10;99.90
46732;DHT22;32477;51.474;5.696;2022-07-26T15:06:54;20.00;99.90
46732;DHT22;32477;51.474;5.696;2022-07-26T15:09:20;19.90;99.90
46732;DHT22;32477;51.474;5.696;2022-07-26T15:11:46;19.70;99.90
46732;DHT22;32477;51.474;5.696;2022-07-26T15:14:14;19.70;99.90
46732;DHT22;32477;51.474;5.696;2022-07-26T15:16:40;19.60;99.90
46732;DHT22;32477;51.474;5.696;2022-07-26T15:19:06;19.20;99.90
46732;DHT22;32477;51.474;5.696;2022-07-26T15:21:32;19.10;99.90
46732;DHT22;32477;51.474;5.696;2022-07-26T15:23:57;19.20;99.90
46732;DHT22;32477;51.474;5.696;2022-07-26T15:26:26;19.40;99.90
46732;DHT22;32477;51.474;5.696;2022-07-26T15:28:55;19.60;99.90
46732;DHT22;32477;51.474;5.696;2022-07-26T15:31:24;19.90;99.90
46732;DHT22;32477;51.474;5.696;2022-07-26T15:33:50;20.20;99.90
46732;DHT22;32477;51.474;5.696;2022-07-26T15:36:17;20.40;99.90
46732;DHT22;32477;51.474;5.696;2022-07-26T15:38:48;20.50;99.90
46732;DHT22;32477;51.474;5.696;2022-07-26T15:41:14;20.70;99.90
46732;DHT22;32477;51.474;5.696;2022-07-26T15:43:40;20.70;99.90
46732;DHT22;32477;51.474;5.696;2022-07-26T15:46:06;20.90;99.90
46732;DHT22;32477;51.474;5.696;2022-07-26T15:48:44;21.10;99.90
46732;DHT22;32477;51.474;5.696;2022-07-26T15:51:10;21.00;99.90
46732;DHT22;32477;51.474;5.696;2022-07-26T15:53:35;21.00;99.90
46732;DHT22;32477;51.474;5.696;2022-07-26T15:56:03;21.20;99.90
46732;DHT22;32477;51.474;5.696;2022-07-26T15:58:29;21.40;99.90
46732;DHT22;32477;51.474;5.696;2022-07-26T16:00:55;21.50;99.90
46732;DHT22;32477;51.474;5.696;2022-07-26T16:03:21;21.70;99.90
46732;DHT22;32477;51.474;5.696;2022-07-26T16:05:47;21.90;99.90
46732;DHT22;32477;51.474;5.696;2022-07-26T16:08:13;22.20;99.90
46732;DHT22;32477;51.474;5.696;2022-07-26T16:10:39;22.20;99.90
46732;DHT22;32477;51.474;5.696;2022-07-26T16:13:07;22.30;99.90
46732;DHT22;32477;51.474;5.696;2022-07-26T16:15:33;22.10;99.90
46732;DHT22;32477;51.474;5.696;2022-07-26T16:17:59;21.90;99.90
46732;DHT22;32477;51.474;5.696;2022-07-26T16:20:25;21.60;99.90
46732;DHT22;32477;51.474;5.696;2022-07-26T16:22:51;21.30;99.90
46732;DHT22;32477;51.474;5.696;2022-07-26T16:25:23;21.20;99.90
46732;DHT22;32477;51.474;5.696;2022-07-26T16:27:49;21.00;99.90